sensor_id;sensor_type;location;lat;lon;timestamp;temperature;humidity
23083;DHT22;11709;52.420;10.538;2023-01-25T00:02:05;1.50;99.90
23083;DHT22;11709;52.420;10.538;2023-01-25T00:06:08;1.50;99.90
23083;DHT22;11709;52.420;10.538;2023-01-25T00:10:10;1.50;99.90
23083;DHT22;11709;52.420;10.538;2023-01-25T00:14:14;1.50;99.90
23083;DHT22;11709;52.420;10.538;2023-01-25T00:18:17;1.50;99.90
23083;DHT22;11709;52.420;10.538;2023-01-25T00:22:19;1.50;99.90
23083;DHT22;11709;52.420;10.538;2023-01-25T00:26:22;1.50;99.90
23083;DHT22;11709;52.420;10.538;2023-01-25T00:30:25;1.50;99.90
23083;DHT22;11709;52.420;10.538;2023-01-25T00:38:48;1.40;99.90
23083;DHT22;11709;52.420;10.538;2023-01-25T00:42:51;1.40;99.90
23083;DHT22;11709;52.420;10.538;2023-01-25T00:46:53;1.40;99.90
23083;DHT22;11709;52.420;10.538;2023-01-25T00:51:00;1.30;99.90
23083;DHT22;11709;52.420;10.538;2023-01-25T00:55:08;1.30;99.90
23083;DHT22;11709;52.420;10.538;2023-01-25T00:59:08;1.40;99.90
23083;DHT22;11709;52.420;10.538;2023-01-25T01:03:10;1.40;99.90
23083;DHT22;11709;52.420;10.538;2023-01-25T01:07:14;1.30;99.90
23083;DHT22;11709;52.420;10.538;2023-01-25T01:11:17;1.40;99.90
23083;DHT22;11709;52.420;10.538;2023-01-25T01:15:19;1.40;99.90
23083;DHT22;11709;52.420;10.538;2023-01-25T01:19:22;1.40;99.90
23083;DHT22;11709;52.420;10.538;2023-01-25T01:23:24;1.40;99.90
23083;DHT22;11709;52.420;10.538;2023-01-25T01:27:27;1.40;99.90
23083;DHT22;11709;52.420;10.538;2023-01-25T01:31:29;1.40;99.90
23083;DHT22;11709;52.420;10.538;2023-01-25T01:35:32;1.40;99.90
23083;DHT22;11709;52.420;10.538;2023-01-25T01:39:34;1.40;99.90
23083;DHT22;11709;52.420;10.538;2023-01-25T01:43:38;1.40;99.90
23083;DHT22;11709;52.420;10.538;2023-01-25T01:47:42;1.40;99.90
23083;DHT22;11709;52.420;10.538;2023-01-25T01:55:59;1.30;99.90
23083;DHT22;11709;52.420;10.538;2023-01-25T02:00:12;1.30;99.90
23083;DHT22;11709;52.420;10.538;2023-01-25T02:04:17;1.30;99.90
23083;DHT22;11709;52.420;10.538;2023-01-25T02:08:20;1.40;99.90
23083;DHT22;11709;52.420;10.538;2023-01-25T02:12:23;1.40;99.90
23083;DHT22;11709;52.420;10.538;2023-01-25T02:16:27;1.40;99.90
23083;DHT22;11709;52.420;10.538;2023-01-25T02:20:38;1.40;99.90
23083;DHT22;11709;52.420;10.538;2023-01-25T02:24:44;1.40;99.90
23083;DHT22;11709;52.420;10.538;2023-01-25T02:29:03;1.40;99.90
23083;DHT22;11709;52.420;10.538;2023-01-25T02:33:06;1.40;99.90
23083;DHT22;11709;52.420;10.538;2023-01-25T02:37:13;1.40;99.90
23083;DHT22;11709;52.420;10.538;2023-01-25T02:41:24;1.40;99.90
23083;DHT22;11709;52.420;10.538;2023-01-25T02:45:28;1.40;99.90
23083;DHT22;11709;52.420;10.538;2023-01-25T02:49:37;1.40;99.90
23083;DHT22;11709;52.420;10.538;2023-01-25T02:53:37;1.40;99.90
23083;DHT22;11709;52.420;10.538;2023-01-25T02:57:39;1.30;99.90
23083;DHT22;11709;52.420;10.538;2023-01-25T03:01:42;1.30;99.90
23083;DHT22;11709;52.420;10.538;2023-01-25T03:05:45;1.30;99.90
23083;DHT22;11709;52.420;10.538;2023-01-25T03:09:47;1.30;99.90
23083;DHT22;11709;52.420;10.538;2023-01-25T03:13:50;1.30;99.90
23083;DHT22;11709;52.420;10.538;2023-01-25T03:17:54;1.30;99.90
23083;DHT22;11709;52.420;10.538;2023-01-25T03:21:56;1.30;99.90
23083;DHT22;11709;52.420;10.538;2023-01-25T03:26:10;1.30;99.90
23083;DHT22;11709;52.420;10.538;2023-01-25T03:30:13;1.40;99.90
23083;DHT22;11709;52.420;10.538;2023-01-25T03:34:15;1.30;99.90
23083;DHT22;11709;52.420;10.538;2023-01-25T03:38:18;1.40;99.90
23083;DHT22;11709;52.420;10.538;2023-01-25T03:42:21;1.40;99.90
23083;DHT22;11709;52.420;10.538;2023-01-25T03:46:24;1.40;99.90
23083;DHT22;11709;52.420;10.538;2023-01-25T03:50:26;1.40;99.90
23083;DHT22;11709;52.420;10.538;2023-01-25T03:54:29;1.30;99.90
23083;DHT22;11709;52.420;10.538;2023-01-25T03:58:31;1.40;99.90
23083;DHT22;11709;52.420;10.538;2023-01-25T04:02:34;1.30;99.90
23083;DHT22;11709;52.420;10.538;2023-01-25T04:06:36;1.40;99.90
23083;DHT22;11709;52.420;10.538;2023-01-25T04:10:39;1.30;99.90
23083;DHT22;11709;52.420;10.538;2023-01-25T04:14:41;1.30;99.90
23083;DHT22;11709;52.420;10.538;2023-01-25T04:18:44;1.30;99.90
23083;DHT22;11709;52.420;10.538;2023-01-25T04:22:47;1.20;99.90
23083;DHT22;11709;52.420;10.538;2023-01-25T04:26:49;1.20;99.90
23083;DHT22;11709;52.420;10.538;2023-01-25T04:30:53;1.20;99.90
23083;DHT22;11709;52.420;10.538;2023-01-25T04:34:56;1.10;99.90
23083;DHT22;11709;52.420;10.538;2023-01-25T04:38:59;1.10;99.90
23083;DHT22;11709;52.420;10.538;2023-01-25T04:43:02;1.10;99.90
23083;DHT22;11709;52.420;10.538;2023-01-25T04:47:04;1.10;99.90
23083;DHT22;11709;52.420;10.538;2023-01-25T04:51:07;1.00;99.90
23083;DHT22;11709;52.420;10.538;2023-01-25T04:55:09;0.90;99.90
23083;DHT22;11709;52.420;10.538;2023-01-25T04:59:12;0.90;99.90
23083;DHT22;11709;52.420;10.538;2023-01-25T05:03:14;0.90;99.90
23083;DHT22;11709;52.420;10.538;2023-01-25T05:07:17;0.90;99.90
23083;DHT22;11709;52.420;10.538;2023-01-25T05:11:19;0.90;99.90
23083;DHT22;11709;52.420;10.538;2023-01-25T05:15:22;0.90;99.90
23083;DHT22;11709;52.420;10.538;2023-01-25T05:19:24;0.90;99.90
23083;DHT22;11709;52.420;10.538;2023-01-25T05:23:27;0.90;99.90
23083;DHT22;11709;52.420;10.538;2023-01-25T05:27:29;0.90;99.90
23083;DHT22;11709;52.420;10.538;2023-01-25T05:31:32;0.90;99.90
23083;DHT22;11709;52.420;10.538;2023-01-25T05:35:34;0.90;99.90
23083;DHT22;11709;52.420;10.538;2023-01-25T05:39:37;0.90;99.90
23083;DHT22;11709;52.420;10.538;2023-01-25T05:43:39;0.90;99.90
23083;DHT22;11709;52.420;10.538;2023-01-25T05:47:42;0.90;99.90
23083;DHT22;11709;52.420;10.538;2023-01-25T05:51:45;0.80;99.90
23083;DHT22;11709;52.420;10.538;2023-01-25T05:55:47;0.80;99.90
23083;DHT22;11709;52.420;10.538;2023-01-25T05:59:50;0.80;99.90
23083;DHT22;11709;52.420;10.538;2023-01-25T06:03:53;0.80;99.90
23083;DHT22;11709;52.420;10.538;2023-01-25T06:07:57;0.80;99.90
23083;DHT22;11709;52.420;10.538;2023-01-25T06:12:00;0.80;99.90
23083;DHT22;11709;52.420;10.538;2023-01-25T06:16:04;0.80;99.90
23083;DHT22;11709;52.420;10.538;2023-01-25T06:20:07;0.80;99.90
23083;DHT22;11709;52.420;10.538;2023-01-25T06:24:10;0.80;99.90
23083;DHT22;11709;52.420;10.538;2023-01-25T06:28:13;0.80;99.90
23083;DHT22;11709;52.420;10.538;2023-01-25T06:32:15;0.80;99.90
23083;DHT22;11709;52.420;10.538;2023-01-25T06:36:19;0.80;99.90
23083;DHT22;11709;52.420;10.538;2023-01-25T06:40:22;0.80;99.90
23083;DHT22;11709;52.420;10.538;2023-01-25T06:44:24;0.80;99.90
23083;DHT22;11709;52.420;10.538;2023-01-25T06:48:28;0.90;99.90
23083;DHT22;11709;52.420;10.538;2023-01-25T06:52:31;0.90;99.90
23083;DHT22;11709;52.420;10.538;2023-01-25T06:56:35;0.90;99.90
23083;DHT22;11709;52.420;10.538;2023-01-25T07:00:38;0.90;99.90
23083;DHT22;11709;52.420;10.538;2023-01-25T07:04:40;0.90;99.90
23083;DHT22;11709;52.420;10.538;2023-01-25T07:08:43;0.80;99.90
23083;DHT22;11709;52.420;10.538;2023-01-25T07:12:46;0.70;99.90
23083;DHT22;11709;52.420;10.538;2023-01-25T07:16:48;0.70;99.90
23083;DHT22;11709;52.420;10.538;2023-01-25T07:20:51;0.80;99.90
23083;DHT22;11709;52.420;10.538;2023-01-25T07:24:54;0.70;99.90
23083;DHT22;11709;52.420;10.538;2023-01-25T07:28:58;0.70;99.90
23083;DHT22;11709;52.420;10.538;2023-01-25T07:33:01;0.70;99.90
23083;DHT22;11709;52.420;10.538;2023-01-25T07:37:04;0.70;99.90
23083;DHT22;11709;52.420;10.538;2023-01-25T07:41:06;0.70;99.90
23083;DHT22;11709;52.420;10.538;2023-01-25T07:45:09;0.70;99.90
23083;DHT22;11709;52.420;10.538;2023-01-25T07:49:12;0.60;99.90
23083;DHT22;11709;52.420;10.538;2023-01-25T07:53:15;0.70;99.90
23083;DHT22;11709;52.420;10.538;2023-01-25T07:57:18;0.70;99.90
23083;DHT22;11709;52.420;10.538;2023-01-25T08:01:23;0.70;99.90
23083;DHT22;11709;52.420;10.538;2023-01-25T08:05:25;0.70;99.90
23083;DHT22;11709;52.420;10.538;2023-01-25T08:09:28;0.70;99.90
23083;DHT22;11709;52.420;10.538;2023-01-25T08:13:30;0.70;99.90
23083;DHT22;11709;52.420;10.538;2023-01-25T08:17:33;0.70;99.90
23083;DHT22;11709;52.420;10.538;2023-01-25T08:21:35;0.70;99.90
23083;DHT22;11709;52.420;10.538;2023-01-25T08:25:38;0.70;99.90
23083;DHT22;11709;52.420;10.538;2023-01-25T08:29:40;0.70;99.90
23083;DHT22;11709;52.420;10.538;2023-01-25T08:33:44;0.70;99.90
23083;DHT22;11709;52.420;10.538;2023-01-25T08:37:47;0.70;99.90
23083;DHT22;11709;52.420;10.538;2023-01-25T08:41:49;0.70;99.90
23083;DHT22;11709;52.420;10.538;2023-01-25T08:45:58;0.70;99.90
23083;DHT22;11709;52.420;10.538;2023-01-25T08:50:00;0.70;99.90
23083;DHT22;11709;52.420;10.538;2023-01-25T08:54:04;0.70;99.90
23083;DHT22;11709;52.420;10.538;2023-01-25T08:58:11;0.60;99.90
23083;DHT22;11709;52.420;10.538;2023-01-25T09:02:14;0.60;99.90
23083;DHT22;11709;52.420;10.538;2023-01-25T09:06:17;0.60;99.90
23083;DHT22;11709;52.420;10.538;2023-01-25T09:10:20;0.60;99.90
23083;DHT22;11709;52.420;10.538;2023-01-25T09:14:23;0.60;99.90
23083;DHT22;11709;52.420;10.538;2023-01-25T09:18:26;0.50;99.90
23083;DHT22;11709;52.420;10.538;2023-01-25T09:22:29;0.50;99.90
23083;DHT22;11709;52.420;10.538;2023-01-25T09:26:33;0.50;99.90
23083;DHT22;11709;52.420;10.538;2023-01-25T09:30:37;0.40;99.90
23083;DHT22;11709;52.420;10.538;2023-01-25T09:34:40;0.40;99.90
23083;DHT22;11709;52.420;10.538;2023-01-25T09:38:42;0.40;99.90
23083;DHT22;11709;52.420;10.538;2023-01-25T09:42:53;0.40;99.90
23083;DHT22;11709;52.420;10.538;2023-01-25T09:47:08;0.40;99.90
23083;DHT22;11709;52.420;10.538;2023-01-25T09:51:44;0.50;99.90
23083;DHT22;11709;52.420;10.538;2023-01-25T09:55:33;0.50;99.90
23083;DHT22;11709;52.420;10.538;2023-01-25T09:59:37;0.40;99.90
23083;DHT22;11709;52.420;10.538;2023-01-25T10:03:53;0.40;99.90
23083;DHT22;11709;52.420;10.538;2023-01-25T10:07:56;0.40;99.90
23083;DHT22;11709;52.420;10.538;2023-01-25T10:12:18;0.40;99.90
23083;DHT22;11709;52.420;10.538;2023-01-25T10:16:36;0.40;99.90
23083;DHT22;11709;52.420;10.538;2023-01-25T10:20:52;0.30;99.90
23083;DHT22;11709;52.420;10.538;2023-01-25T10:29:26;0.40;99.90
23083;DHT22;11709;52.420;10.538;2023-01-25T10:33:27;0.40;99.90
23083;DHT22;11709;52.420;10.538;2023-01-25T10:37:32;0.40;99.90
23083;DHT22;11709;52.420;10.538;2023-01-25T10:42:12;0.30;99.90
23083;DHT22;11709;52.420;10.538;2023-01-25T10:45:50;0.30;99.90
23083;DHT22;11709;52.420;10.538;2023-01-25T10:49:57;0.30;99.90
23083;DHT22;11709;52.420;10.538;2023-01-25T10:54:12;0.30;99.90
23083;DHT22;11709;52.420;10.538;2023-01-25T10:58:27;0.30;99.90
23083;DHT22;11709;52.420;10.538;2023-01-25T11:02:38;0.30;99.90
23083;DHT22;11709;52.420;10.538;2023-01-25T11:06:47;0.30;99.90
23083;DHT22;11709;52.420;10.538;2023-01-25T11:10:52;0.30;99.90
23083;DHT22;11709;52.420;10.538;2023-01-25T11:14:54;0.30;99.90
23083;DHT22;11709;52.420;10.538;2023-01-25T11:18:58;0.30;99.90
23083;DHT22;11709;52.420;10.538;2023-01-25T11:23:03;0.40;99.90
23083;DHT22;11709;52.420;10.538;2023-01-25T11:27:15;0.40;99.90
23083;DHT22;11709;52.420;10.538;2023-01-25T11:31:20;0.50;99.90
23083;DHT22;11709;52.420;10.538;2023-01-25T11:35:26;0.40;99.90
23083;DHT22;11709;52.420;10.538;2023-01-25T12:05:56;0.50;99.90
23083;DHT22;11709;52.420;10.538;2023-01-25T12:10:49;0.50;99.90
23083;DHT22;11709;52.420;10.538;2023-01-25T12:14:11;0.50;99.90
23083;DHT22;11709;52.420;10.538;2023-01-25T12:18:43;0.50;99.90
23083;DHT22;11709;52.420;10.538;2023-01-25T12:27:26;0.60;99.90
23083;DHT22;11709;52.420;10.538;2023-01-25T12:31:36;0.60;99.90
23083;DHT22;11709;52.420;10.538;2023-01-25T12:35:40;0.60;99.90
23083;DHT22;11709;52.420;10.538;2023-01-25T12:39:48;0.60;99.90
23083;DHT22;11709;52.420;10.538;2023-01-25T12:48:29;0.60;99.90
23083;DHT22;11709;52.420;10.538;2023-01-25T12:52:38;0.60;99.90
23083;DHT22;11709;52.420;10.538;2023-01-25T12:56:51;0.60;99.90
23083;DHT22;11709;52.420;10.538;2023-01-25T13:05:34;0.60;99.90
23083;DHT22;11709;52.420;10.538;2023-01-25T13:13:53;0.60;99.90
23083;DHT22;11709;52.420;10.538;2023-01-25T13:17:56;0.70;99.90
23083;DHT22;11709;52.420;10.538;2023-01-25T13:21:59;0.70;99.90
23083;DHT22;11709;52.420;10.538;2023-01-25T13:30:32;0.60;99.90
23083;DHT22;11709;52.420;10.538;2023-01-25T13:38:44;0.60;99.90
23083;DHT22;11709;52.420;10.538;2023-01-25T13:43:02;0.60;99.90
23083;DHT22;11709;52.420;10.538;2023-01-25T13:47:03;0.60;99.90
23083;DHT22;11709;52.420;10.538;2023-01-25T13:51:11;0.60;99.90
23083;DHT22;11709;52.420;10.538;2023-01-25T13:55:18;0.60;99.90
23083;DHT22;11709;52.420;10.538;2023-01-25T13:59:25;0.50;99.90
23083;DHT22;11709;52.420;10.538;2023-01-25T14:03:29;0.50;99.90
23083;DHT22;11709;52.420;10.538;2023-01-25T14:07:34;0.50;99.90
23083;DHT22;11709;52.420;10.538;2023-01-25T14:11:43;0.50;99.90
23083;DHT22;11709;52.420;10.538;2023-01-25T14:15:57;0.50;99.90
23083;DHT22;11709;52.420;10.538;2023-01-25T14:20:01;0.50;99.90
23083;DHT22;11709;52.420;10.538;2023-01-25T14:24:09;0.40;99.90
23083;DHT22;11709;52.420;10.538;2023-01-25T14:28:11;0.40;99.90
23083;DHT22;11709;52.420;10.538;2023-01-25T14:32:17;0.40;99.90
23083;DHT22;11709;52.420;10.538;2023-01-25T14:36:21;0.40;99.90
23083;DHT22;11709;52.420;10.538;2023-01-25T14:40:25;0.40;99.90
23083;DHT22;11709;52.420;10.538;2023-01-25T14:44:29;0.40;99.90
23083;DHT22;11709;52.420;10.538;2023-01-25T14:48:36;0.30;99.90
23083;DHT22;11709;52.420;10.538;2023-01-25T14:52:40;0.30;99.90
23083;DHT22;11709;52.420;10.538;2023-01-25T14:56:56;0.30;99.90
23083;DHT22;11709;52.420;10.538;2023-01-25T15:01:01;0.30;99.90
23083;DHT22;11709;52.420;10.538;2023-01-25T15:05:14;0.20;99.90
23083;DHT22;11709;52.420;10.538;2023-01-25T15:09:40;0.20;99.90
23083;DHT22;11709;52.420;10.538;2023-01-25T15:13:43;0.20;99.90
23083;DHT22;11709;52.420;10.538;2023-01-25T15:17:48;0.20;99.90
23083;DHT22;11709;52.420;10.538;2023-01-25T15:21:53;0.30;99.90
23083;DHT22;11709;52.420;10.538;2023-01-25T15:25:59;0.30;99.90
23083;DHT22;11709;52.420;10.538;2023-01-25T15:30:02;0.20;99.90
23083;DHT22;11709;52.420;10.538;2023-01-25T15:34:08;0.30;99.90
23083;DHT22;11709;52.420;10.538;2023-01-25T15:38:11;0.20;99.90
23083;DHT22;11709;52.420;10.538;2023-01-25T15:42:14;0.30;99.90
23083;DHT22;11709;52.420;10.538;2023-01-25T15:46:22;0.30;99.90
23083;DHT22;11709;52.420;10.538;2023-01-25T15:50:25;0.20;99.90
23083;DHT22;11709;52.420;10.538;2023-01-25T15:54:29;0.10;99.90
23083;DHT22;11709;52.420;10.538;2023-01-25T15:58:37;0.10;99.90
23083;DHT22;11709;52.420;10.538;2023-01-25T16:02:40;0.10;99.90
23083;DHT22;11709;52.420;10.538;2023-01-25T16:06:47;0.10;99.90
23083;DHT22;11709;52.420;10.538;2023-01-25T16:10:50;0.10;99.90
23083;DHT22;11709;52.420;10.538;2023-01-25T16:14:53;0.10;99.90
23083;DHT22;11709;52.420;10.538;2023-01-25T16:18:55;0.10;99.90
23083;DHT22;11709;52.420;10.538;2023-01-25T16:22:58;0.10;99.90
23083;DHT22;11709;52.420;10.538;2023-01-25T16:27:01;0.10;99.90
23083;DHT22;11709;52.420;10.538;2023-01-25T16:31:04;0.10;99.90
23083;DHT22;11709;52.420;10.538;2023-01-25T16:35:08;0.10;99.90
23083;DHT22;11709;52.420;10.538;2023-01-25T16:39:16;0.10;99.90
23083;DHT22;11709;52.420;10.538;2023-01-25T16:43:16;0.10;99.90
23083;DHT22;11709;52.420;10.538;2023-01-25T16:47:19;0.00;99.90
23083;DHT22;11709;52.420;10.538;2023-01-25T16:51:27;0.00;99.90
23083;DHT22;11709;52.420;10.538;2023-01-25T16:55:27;0.00;99.90
23083;DHT22;11709;52.420;10.538;2023-01-25T16:59:29;0.00;99.90
23083;DHT22;11709;52.420;10.538;2023-01-25T17:03:32;0.00;99.90
23083;DHT22;11709;52.420;10.538;2023-01-25T17:07:35;0.00;99.90
23083;DHT22;11709;52.420;10.538;2023-01-25T17:11:38;0.00;99.90
23083;DHT22;11709;52.420;10.538;2023-01-25T17:15:40;0.10;99.90
23083;DHT22;11709;52.420;10.538;2023-01-25T17:19:43;0.10;99.90
23083;DHT22;11709;52.420;10.538;2023-01-25T17:23:46;0.00;99.90
23083;DHT22;11709;52.420;10.538;2023-01-25T17:27:48;0.00;99.90
23083;DHT22;11709;52.420;10.538;2023-01-25T17:31:51;-0.10;99.90
23083;DHT22;11709;52.420;10.538;2023-01-25T17:35:54;-0.10;99.90
23083;DHT22;11709;52.420;10.538;2023-01-25T17:39:59;-0.10;99.90
23083;DHT22;11709;52.420;10.538;2023-01-25T17:44:00;-0.10;99.90
23083;DHT22;11709;52.420;10.538;2023-01-25T17:48:04;0.30;99.90
23083;DHT22;11709;52.420;10.538;2023-01-25T17:52:09;0.00;99.90
23083;DHT22;11709;52.420;10.538;2023-01-25T17:56:12;0.00;99.90
23083;DHT22;11709;52.420;10.538;2023-01-25T18:00:15;0.00;99.90
23083;DHT22;11709;52.420;10.538;2023-01-25T18:04:17;0.00;99.90
23083;DHT22;11709;52.420;10.538;2023-01-25T18:08:20;0.10;99.90
23083;DHT22;11709;52.420;10.538;2023-01-25T18:12:23;0.00;99.90
23083;DHT22;11709;52.420;10.538;2023-01-25T18:16:28;0.00;99.90
23083;DHT22;11709;52.420;10.538;2023-01-25T18:20:32;0.00;99.90
23083;DHT22;11709;52.420;10.538;2023-01-25T18:24:35;0.00;99.90
23083;DHT22;11709;52.420;10.538;2023-01-25T18:28:37;0.00;99.90
23083;DHT22;11709;52.420;10.538;2023-01-25T18:32:40;-0.10;99.90
23083;DHT22;11709;52.420;10.538;2023-01-25T18:36:42;-0.10;99.90
23083;DHT22;11709;52.420;10.538;2023-01-25T18:40:45;0.00;99.90
23083;DHT22;11709;52.420;10.538;2023-01-25T18:44:53;-0.10;99.90
23083;DHT22;11709;52.420;10.538;2023-01-25T18:48:55;0.00;99.90
23083;DHT22;11709;52.420;10.538;2023-01-25T18:52:58;0.10;99.90
23083;DHT22;11709;52.420;10.538;2023-01-25T18:57:00;0.00;99.90
23083;DHT22;11709;52.420;10.538;2023-01-25T19:05:16;-0.10;99.90
23083;DHT22;11709;52.420;10.538;2023-01-25T19:09:20;-0.10;99.90
23083;DHT22;11709;52.420;10.538;2023-01-25T19:13:23;-0.10;99.90
23083;DHT22;11709;52.420;10.538;2023-01-25T19:17:25;-0.10;99.90
23083;DHT22;11709;52.420;10.538;2023-01-25T19:21:28;-0.10;99.90
23083;DHT22;11709;52.420;10.538;2023-01-25T19:25:30;-0.10;99.90
23083;DHT22;11709;52.420;10.538;2023-01-25T19:29:33;-0.20;99.90
23083;DHT22;11709;52.420;10.538;2023-01-25T19:33:37;-0.20;99.90
23083;DHT22;11709;52.420;10.538;2023-01-25T19:37:39;-0.20;99.90
23083;DHT22;11709;52.420;10.538;2023-01-25T19:41:42;-0.20;99.90
23083;DHT22;11709;52.420;10.538;2023-01-25T19:45:45;-0.20;99.90
23083;DHT22;11709;52.420;10.538;2023-01-25T19:49:47;-0.10;99.90
23083;DHT22;11709;52.420;10.538;2023-01-25T19:53:56;-0.20;99.90
23083;DHT22;11709;52.420;10.538;2023-01-25T19:58:03;-0.10;99.90
23083;DHT22;11709;52.420;10.538;2023-01-25T20:02:09;-0.10;99.90
23083;DHT22;11709;52.420;10.538;2023-01-25T20:06:14;-0.10;99.90
23083;DHT22;11709;52.420;10.538;2023-01-25T20:10:17;-0.10;99.90
23083;DHT22;11709;52.420;10.538;2023-01-25T20:14:20;-0.20;99.90
23083;DHT22;11709;52.420;10.538;2023-01-25T20:18:22;-0.20;99.90
23083;DHT22;11709;52.420;10.538;2023-01-25T20:22:24;-0.30;99.90
23083;DHT22;11709;52.420;10.538;2023-01-25T20:26:30;-0.50;99.90
23083;DHT22;11709;52.420;10.538;2023-01-25T20:30:38;-0.20;99.90
23083;DHT22;11709;52.420;10.538;2023-01-25T20:34:43;-0.20;99.90
23083;DHT22;11709;52.420;10.538;2023-01-25T20:38:49;-0.20;99.90
23083;DHT22;11709;52.420;10.538;2023-01-25T20:42:52;-0.10;99.90
23083;DHT22;11709;52.420;10.538;2023-01-25T20:46:55;-0.20;99.90
23083;DHT22;11709;52.420;10.538;2023-01-25T20:51:03;-0.20;99.90
23083;DHT22;11709;52.420;10.538;2023-01-25T20:55:07;-0.20;99.90
23083;DHT22;11709;52.420;10.538;2023-01-25T20:59:10;-0.30;99.90
23083;DHT22;11709;52.420;10.538;2023-01-25T21:03:14;-0.30;99.90
23083;DHT22;11709;52.420;10.538;2023-01-25T21:07:17;-0.30;99.90
23083;DHT22;11709;52.420;10.538;2023-01-25T21:11:22;-0.30;99.90
23083;DHT22;11709;52.420;10.538;2023-01-25T21:15:25;-0.30;99.90
23083;DHT22;11709;52.420;10.538;2023-01-25T21:19:27;-0.40;99.90
23083;DHT22;11709;52.420;10.538;2023-01-25T21:23:29;-0.40;99.90
23083;DHT22;11709;52.420;10.538;2023-01-25T21:27:33;-0.30;99.90
23083;DHT22;11709;52.420;10.538;2023-01-25T21:31:37;-0.40;99.90
23083;DHT22;11709;52.420;10.538;2023-01-25T21:35:42;-0.30;99.90
23083;DHT22;11709;52.420;10.538;2023-01-25T21:39:44;-0.30;99.90
23083;DHT22;11709;52.420;10.538;2023-01-25T21:43:48;-0.30;99.90
23083;DHT22;11709;52.420;10.538;2023-01-25T21:48:08;-0.30;99.90
23083;DHT22;11709;52.420;10.538;2023-01-25T21:52:11;-0.30;99.90
23083;DHT22;11709;52.420;10.538;2023-01-25T21:56:13;-0.40;99.90
23083;DHT22;11709;52.420;10.538;2023-01-25T22:00:16;-0.40;99.90
23083;DHT22;11709;52.420;10.538;2023-01-25T22:04:20;-0.40;99.90
23083;DHT22;11709;52.420;10.538;2023-01-25T22:08:22;-0.40;99.90
23083;DHT22;11709;52.420;10.538;2023-01-25T22:12:24;-0.50;99.90
23083;DHT22;11709;52.420;10.538;2023-01-25T22:16:27;-0.50;99.90
23083;DHT22;11709;52.420;10.538;2023-01-25T22:20:32;-0.40;99.90
23083;DHT22;11709;52.420;10.538;2023-01-25T22:24:35;-0.30;99.90
23083;DHT22;11709;52.420;10.538;2023-01-25T22:28:48;-0.30;99.90
23083;DHT22;11709;52.420;10.538;2023-01-25T22:32:51;-0.30;99.90
23083;DHT22;11709;52.420;10.538;2023-01-25T22:36:53;-0.40;99.90
23083;DHT22;11709;52.420;10.538;2023-01-25T22:41:04;-0.40;99.90
23083;DHT22;11709;52.420;10.538;2023-01-25T22:45:07;-0.40;99.90
23083;DHT22;11709;52.420;10.538;2023-01-25T22:49:10;-0.40;99.90
23083;DHT22;11709;52.420;10.538;2023-01-25T22:53:12;-0.40;99.90
23083;DHT22;11709;52.420;10.538;2023-01-25T22:57:15;-0.40;99.90
23083;DHT22;11709;52.420;10.538;2023-01-25T23:01:20;-0.40;99.90
23083;DHT22;11709;52.420;10.538;2023-01-25T23:05:22;-0.40;99.90
23083;DHT22;11709;52.420;10.538;2023-01-25T23:09:25;-0.40;99.90
23083;DHT22;11709;52.420;10.538;2023-01-25T23:13:27;-0.50;99.90
23083;DHT22;11709;52.420;10.538;2023-01-25T23:17:30;-0.50;99.90
23083;DHT22;11709;52.420;10.538;2023-01-25T23:21:50;-0.60;99.90
23083;DHT22;11709;52.420;10.538;2023-01-25T23:25:52;-0.60;99.90
23083;DHT22;11709;52.420;10.538;2023-01-25T23:29:55;-0.70;99.90
23083;DHT22;11709;52.420;10.538;2023-01-25T23:34:00;-0.70;99.90
23083;DHT22;11709;52.420;10.538;2023-01-25T23:38:03;-0.70;99.90
23083;DHT22;11709;52.420;10.538;2023-01-25T23:42:07;-0.80;99.90
23083;DHT22;11709;52.420;10.538;2023-01-25T23:46:10;-0.90;99.90
23083;DHT22;11709;52.420;10.538;2023-01-25T23:50:14;-0.90;99.90
23083;DHT22;11709;52.420;10.538;2023-01-25T23:54:16;-1.00;99.90
23083;DHT22;11709;52.420;10.538;2023-01-25T23:58:19;-0.90;99.90
